Time;durP1;ratioP1;P1;durP2;ratioP2;P2;SDS_P1;SDS_P2;PMS_P1;PMS_P2;Temp;Humidity;BMP_temperature;BMP_pressure;BME280_temperature;BME280_humidity;BME280_pressure;Samples;Min_cycle;Max_cycle;Signal;HPM_P1;HPM_P2
2022/06/26 00:01:21;;;;;;;13.45;7.63;;;;;;;17.09;66.15;100351.75;4981840;28;20137;-80
2022/06/26 00:03:47;;;;;;;13.23;7.57;;;;;;;17.12;65.92;100359.53;4984363;28;20129;-78
2022/06/26 00:06:13;;;;;;;13.02;7.90;;;;;;;17.12;66.19;100358.69;4980735;28;20125;-79
2022/06/26 00:08:40;;;;;;;12.90;8.50;;;;;;;17.09;66.32;100350.88;4982942;28;20061;-79
2022/06/26 00:11:06;;;;;;;16.58;8.30;;;;;;;17.14;66.27;100362.13;4983144;28;20035;-80
2022/06/26 00:13:32;;;;;;;19.23;9.07;;;;;;;17.10;66.41;100363.13;4978458;28;20050;-78
2022/06/26 00:15:58;;;;;;;17.17;8.57;;;;;;;17.09;66.46;100364.91;4962781;28;20129;-80
2022/06/26 00:18:24;;;;;;;16.13;9.05;;;;;;;17.09;66.54;100372.78;4981729;28;20046;-78
2022/06/26 00:20:50;;;;;;;16.85;8.00;;;;;;;17.02;66.66;100366.81;4985517;28;20034;-78
2022/06/26 00:23:16;;;;;;;18.67;8.23;;;;;;;17.02;66.40;100381.72;4984724;28;20189;-79
2022/06/26 00:25:42;;;;;;;12.90;7.95;;;;;;;17.01;66.64;100372.13;4987440;28;20058;-79
2022/06/26 00:28:08;;;;;;;15.10;7.85;;;;;;;16.98;66.90;100378.31;4985260;28;20049;-78
2022/06/26 00:30:34;;;;;;;18.48;8.23;;;;;;;16.97;66.81;100375.72;4985493;28;20039;-77
2022/06/26 00:33:00;;;;;;;17.60;7.70;;;;;;;16.88;66.99;100361.03;4982675;28;20053;-78
2022/06/26 00:35:26;;;;;;;14.85;8.27;;;;;;;16.91;66.84;100366.22;4981512;28;20034;-78
2022/06/26 00:37:52;;;;;;;16.45;7.50;;;;;;;16.88;67.16;100365.44;4985878;28;20050;-78
2022/06/26 00:40:18;;;;;;;13.85;7.85;;;;;;;16.92;67.14;100373.19;4985692;28;20038;-78
2022/06/26 00:42:44;;;;;;;17.17;7.97;;;;;;;16.94;67.27;100376.66;4988306;28;20093;-78
2022/06/26 00:45:11;;;;;;;19.25;8.20;;;;;;;16.94;67.39;100378.38;4982553;28;20045;-78
2022/06/26 00:47:37;;;;;;;21.10;8.30;;;;;;;16.93;67.02;100377.53;4977547;28;20089;-78
2022/06/26 00:50:07;;;;;;;12.70;7.82;;;;;;;16.85;67.11;100372.50;4984202;28;20084;-79
2022/06/26 00:52:36;;;;;;;17.57;8.37;;;;;;;16.90;67.02;100379.38;4981489;28;20038;-80
2022/06/26 00:55:03;;;;;;;14.20;7.55;;;;;;;16.91;67.20;100381.97;4964027;28;20045;-80
2022/06/26 00:57:29;;;;;;;15.32;8.00;;;;;;;16.83;67.19;100387.44;4980268;28;20042;-80
2022/06/26 00:59:56;;;;;;;15.32;7.97;;;;;;;16.77;66.94;100377.06;4985708;28;20062;-79
2022/06/26 01:02:23;;;;;;;11.63;7.57;;;;;;;16.83;67.12;100386.56;4985155;28;20076;-77
2022/06/26 01:04:49;;;;;;;15.48;7.80;;;;;;;16.81;67.31;100386.59;4986057;28;20035;-78
2022/06/26 01:07:15;;;;;;;18.73;8.23;;;;;;;16.82;67.25;100387.47;4982048;28;20130;-78
2022/06/26 01:09:41;;;;;;;18.02;8.55;;;;;;;16.92;67.45;100395.97;4985433;28;20141;-79
2022/06/26 01:12:08;;;;;;;16.83;8.73;;;;;;;16.91;67.17;100394.25;4977973;28;20066;-79
2022/06/26 01:14:34;;;;;;;14.57;8.18;;;;;;;16.88;67.28;100397.81;4978313;28;20046;-77
2022/06/26 01:17:00;;;;;;;16.13;7.35;;;;;;;16.92;67.41;100403.84;5004605;28;20042;-78
2022/06/26 01:19:27;;;;;;;19.75;7.72;;;;;;;16.91;67.28;100400.38;4986604;28;20046;-78
2022/06/26 01:21:53;;;;;;;11.57;7.43;;;;;;;16.94;67.05;100408.19;4986676;28;20495;-77
2022/06/26 01:24:19;;;;;;;14.85;7.45;;;;;;;16.96;67.42;100408.16;4983413;28;20057;-77
2022/06/26 01:26:45;;;;;;;14.45;8.00;;;;;;;16.93;67.33;100397.69;4984327;28;20050;-79
2022/06/26 01:29:11;;;;;;;11.55;7.50;;;;;;;16.94;67.49;100395.03;4984306;28;20053;-79
2022/06/26 01:31:41;;;;;;;20.50;8.88;;;;;;;17.05;67.54;100413.19;4983593;28;20105;-78
2022/06/26 01:34:10;;;;;;;14.65;8.35;;;;;;;17.07;67.34;100414.03;4986862;28;20105;-79
2022/06/26 01:36:36;;;;;;;17.58;7.95;;;;;;;17.03;67.45;100399.22;4983558;28;20048;-80
2022/06/26 01:39:04;;;;;;;15.35;7.85;;;;;;;17.16;67.24;100410.28;4982464;28;20117;-78
2022/06/26 01:41:30;;;;;;;16.50;7.88;;;;;;;17.18;67.34;100419.00;4984120;28;20132;-77
2022/06/26 01:43:56;;;;;;;16.85;8.23;;;;;;;17.15;67.45;100417.28;4985147;28;20177;-77
2022/06/26 01:46:24;;;;;;;16.98;8.63;;;;;;;17.22;67.62;100414.50;4982865;28;20045;-80
2022/06/26 01:48:50;;;;;;;15.75;8.05;;;;;;;17.21;67.62;100407.53;4981892;28;20042;-80
2022/06/26 01:51:16;;;;;;;10.77;8.10;;;;;;;17.28;67.23;100419.63;4980920;28;20042;-78
2022/06/26 01:53:44;;;;;;;15.63;8.20;;;;;;;17.31;67.51;100412.50;4966349;28;20054;-77
2022/06/26 01:56:11;;;;;;;20.52;8.48;;;;;;;17.35;67.31;100417.69;4983685;28;20042;-79
2022/06/26 01:58:40;;;;;;;17.27;9.10;;;;;;;17.45;67.63;100420.00;4980398;28;20038;-78
2022/06/26 02:01:08;;;;;;;15.38;8.15;;;;;;;17.52;67.69;100418.06;4982735;28;20042;-80
2022/06/26 02:03:35;;;;;;;17.17;8.02;;;;;;;17.56;67.61;100418.84;4968449;28;20418;-77
2022/06/26 02:06:02;;;;;;;20.65;8.30;;;;;;;17.62;67.62;100416.03;4980169;28;20042;-77
2022/06/26 02:08:30;;;;;;;15.98;7.72;;;;;;;17.71;67.63;100418.41;4979438;28;20537;-78
2022/06/26 02:13:42;;;;;;;21.08;9.00;;;;;;;17.85;67.48;100417.16;4983364;28;20506;-77
2022/06/26 02:16:19;;;;;;;17.60;8.13;;;;;;;17.96;67.29;100420.34;4981969;28;20069;-80
2022/06/26 02:18:48;;;;;;;10.73;8.50;;;;;;;18.06;67.01;100416.53;4986072;28;20140;-78
2022/06/26 02:21:17;;;;;;;10.27;7.88;;;;;;;18.15;67.08;100414.53;4982877;28;20043;-79
2022/06/26 02:23:45;;;;;;;15.75;7.75;;;;;;;18.26;67.29;100422.97;4986202;28;20040;-78
2022/06/26 02:26:11;;;;;;;20.70;8.57;;;;;;;18.39;67.14;100422.59;4983157;28;20056;-77
2022/06/26 02:28:38;;;;;;;11.32;8.05;;;;;;;18.43;66.99;100421.56;4985611;28;20038;-77
2022/06/26 02:31:05;;;;;;;11.77;8.23;;;;;;;18.55;67.01;100430.84;4970930;28;21390;-78
2022/06/26 02:33:35;;;;;;;13.32;8.23;;;;;;;18.63;66.80;100429.72;4984683;28;20138;-78
2022/06/26 02:36:04;;;;;;;16.92;8.57;;;;;;;18.71;66.71;100431.22;4981046;28;20125;-79
2022/06/26 02:38:32;;;;;;;22.33;9.40;;;;;;;18.83;66.54;100444.03;4968364;28;20080;-79
2022/06/26 02:40:59;;;;;;;19.02;8.65;;;;;;;18.86;66.42;100430.75;4966174;28;20052;-78
2022/06/26 02:43:26;;;;;;;18.15;8.65;;;;;;;19.01;66.53;100441.72;4986604;28;20454;-79
2022/06/26 02:45:55;;;;;;;24.00;8.38;;;;;;;19.15;66.53;100449.16;4993974;28;20049;-79
2022/06/26 02:48:22;;;;;;;12.10;8.52;;;;;;;19.20;66.41;100442.78;5004705;28;20053;-78
2022/06/26 02:50:49;;;;;;;14.25;8.27;;;;;;;19.34;66.10;100441.44;4996023;28;20051;-78
2022/06/26 02:53:17;;;;;;;15.77;8.75;;;;;;;19.51;66.13;100443.50;4982701;28;20050;-77
2022/06/26 02:55:43;;;;;;;17.15;8.43;;;;;;;19.62;65.80;100449.25;4998420;28;20110;-79
2022/06/26 02:58:12;;;;;;;15.80;8.23;;;;;;;19.74;65.76;100444.44;4997237;28;20046;-77
2022/06/26 03:00:46;;;;;;;16.30;8.63;;;;;;;19.94;65.67;100449.00;4967469;28;20097;-78
2022/06/26 03:03:13;;;;;;;16.08;8.68;;;;;;;19.98;65.21;100437.38;4985692;28;20043;-80
2022/06/26 03:05:41;;;;;;;16.52;9.27;;;;;;;20.15;64.84;100453.47;4979519;28;20053;-77
2022/06/26 03:08:07;;;;;;;16.45;9.07;;;;;;;20.19;65.01;100438.38;4982694;28;20046;-78
2022/06/26 03:10:33;;;;;;;13.90;9.30;;;;;;;20.42;64.80;100450.66;4981818;28;20050;-77
2022/06/26 03:13:02;;;;;;;21.17;9.75;;;;;;;20.54;64.23;100449.31;4982933;28;20104;-80
2022/06/26 03:15:28;;;;;;;18.65;10.27;;;;;;;20.69;64.24;100454.91;4968218;28;20046;-78
2022/06/26 03:17:57;;;;;;;18.73;9.40;;;;;;;20.79;63.93;100447.50;4981885;28;20046;-77
2022/06/26 03:20:23;;;;;;;24.67;10.80;;;;;;;21.05;63.56;100471.09;4985522;28;20142;-78
2022/06/26 03:22:50;;;;;;;19.35;10.32;;;;;;;21.23;63.27;100463.28;4986096;28;20140;-77
2022/06/26 03:25:19;;;;;;;17.63;10.10;;;;;;;21.31;63.20;100445.25;4971346;28;20042;-77
2022/06/26 03:27:45;;;;;;;17.75;10.02;;;;;;;21.51;62.94;100462.09;4986843;28;20138;-80
2022/06/26 03:30:14;;;;;;;16.95;10.85;;;;;;;21.64;62.43;100457.13;4959734;28;20042;-80
2022/06/26 03:32:48;;;;;;;16.45;10.63;;;;;;;21.79;62.23;100447.63;4959963;28;20043;-78
2022/06/26 03:35:14;;;;;;;17.60;9.70;;;;;;;22.10;61.89;100465.59;4989781;28;20065;-79
2022/06/26 03:37:40;;;;;;;22.30;10.95;;;;;;;22.29;61.20;100461.25;4969510;28;20046;-80
2022/06/26 03:40:08;;;;;;;22.63;11.63;;;;;;;22.49;60.68;100463.84;4986360;28;20046;-79
2022/06/26 03:42:34;;;;;;;20.25;11.48;;;;;;;22.66;60.61;100454.19;4984810;28;20074;-78
2022/06/26 03:45:00;;;;;;;16.30;10.82;;;;;;;22.82;59.77;100457.81;4980895;28;20422;-78
2022/06/26 03:47:26;;;;;;;21.95;11.70;;;;;;;23.01;59.36;100456.91;4982308;28;20074;-79
2022/06/26 03:49:54;;;;;;;21.08;12.00;;;;;;;23.20;58.36;100450.63;4981674;28;20042;-79
2022/06/26 03:52:22;;;;;;;17.92;12.40;;;;;;;23.37;57.96;100448.00;4969248;28;20034;-78
2022/06/26 03:54:51;;;;;;;21.45;11.40;;;;;;;23.59;57.78;100458.38;4981533;28;20046;-78
2022/06/26 03:57:23;;;;;;;18.48;10.80;;;;;;;23.70;56.78;100447.16;4982377;28;20038;-78
2022/06/26 03:59:50;;;;;;;18.48;10.60;;;;;;;23.86;56.50;100452.47;4964667;28;20050;-78
2022/06/26 04:02:46;;;;;;;22.23;10.70;;;;;;;24.05;56.05;100457.69;4981873;28;20489;-78
2022/06/26 04:05:17;;;;;;;17.33;11.30;;;;;;;24.23;55.96;100452.28;4968885;28;20057;-80
2022/06/26 04:07:44;;;;;;;17.52;10.82;;;;;;;24.41;55.11;100465.50;4968434;28;20128;-77
2022/06/26 04:10:16;;;;;;;23.25;11.63;;;;;;;24.52;54.65;100458.63;4983960;28;20050;-78
2022/06/26 04:12:42;;;;;;;15.88;10.63;;;;;;;24.63;53.88;100452.69;4980749;28;20049;-78
2022/06/26 04:15:09;;;;;;;20.10;10.05;;;;;;;24.78;53.59;100448.31;4977427;28;20120;-78
2022/06/26 04:17:37;;;;;;;16.52;9.88;;;;;;;24.98;53.12;100459.59;4970291;28;20407;-79
2022/06/26 04:20:14;;;;;;;20.10;10.30;;;;;;;25.12;52.72;100456.13;5005796;28;20026;-79
2022/06/26 04:22:41;;;;;;;14.50;9.40;;;;;;;25.30;52.54;100455.94;4996811;28;20042;-79
2022/06/26 04:25:11;;;;;;;14.43;9.48;;;;;;;25.47;52.25;100463.81;4986843;28;20045;-78
2022/06/26 04:27:38;;;;;;;16.20;9.27;;;;;;;25.58;51.44;100441.84;4967041;28;20093;-79
2022/06/26 04:30:04;;;;;;;17.23;11.27;;;;;;;25.83;50.86;100470.50;4985628;28;20122;-78
2022/06/26 04:32:30;;;;;;;17.48;10.48;;;;;;;25.92;50.60;100449.56;4968123;28;20042;-77
2022/06/26 04:34:57;;;;;;;16.52;10.85;;;;;;;26.16;49.97;100465.81;4984020;28;20050;-79
2022/06/26 04:37:24;;;;;;;14.63;10.20;;;;;;;26.31;49.58;100470.16;4963545;28;20069;-82
2022/06/26 04:39:50;;;;;;;15.02;10.32;;;;;;;26.43;49.35;100455.16;4983628;28;20050;-78
2022/06/26 04:42:16;;;;;;;13.23;10.00;;;;;;;26.55;49.42;100458.84;4968262;28;20058;-79
2022/06/26 04:44:42;;;;;;;13.77;9.13;;;;;;;26.72;48.75;100460.41;4968398;28;20053;-80
2022/06/26 04:47:08;;;;;;;23.63;10.98;;;;;;;26.90;48.57;100462.81;4953012;28;20042;-77
2022/06/26 04:49:49;;;;;;;11.43;8.60;;;;;;;27.07;47.81;100464.38;4953141;28;20487;-79
2022/06/26 04:52:16;;;;;;;14.00;8.77;;;;;;;27.21;47.39;100463.44;4984650;28;20101;-79
2022/06/26 04:54:43;;;;;;;12.02;8.50;;;;;;;27.33;47.42;100470.59;4980732;28;20042;-78
2022/06/26 04:57:10;;;;;;;12.57;8.40;;;;;;;27.46;46.63;100470.63;4980017;28;20057;-78
2022/06/26 04:59:36;;;;;;;14.10;8.13;;;;;;;27.59;46.21;100467.94;4958910;28;20043;-79
2022/06/26 05:02:05;;;;;;;16.23;7.82;;;;;;;27.66;45.86;100461.22;4982022;28;20080;-80
2022/06/26 05:04:38;;;;;;;14.60;8.93;;;;;;;27.77;45.55;100465.81;4980566;28;20042;-79
2022/06/26 05:07:21;;;;;;;17.40;8.70;;;;;;;27.96;45.13;100476.03;4982978;28;20498;-79
2022/06/26 05:09:47;;;;;;;12.60;8.85;;;;;;;28.06;44.95;100468.19;4965983;28;20096;-80
2022/06/26 05:12:13;;;;;;;11.43;8.65;;;;;;;28.30;44.80;100471.91;4981187;28;20525;-77
2022/06/26 05:14:58;;;;;;;10.65;8.25;;;;;;;28.34;44.62;100452.00;4979488;28;20086;-79
2022/06/26 05:17:35;;;;;;;13.63;8.23;;;;;;;28.52;43.51;100471.19;4968412;28;20508;-78
2022/06/26 05:20:02;;;;;;;9.80;6.57;;;;;;;28.57;43.41;100474.38;4968930;28;20084;-77
2022/06/26 05:22:29;;;;;;;7.78;6.25;;;;;;;28.43;42.26;100440.59;4981058;28;20046;-77
2022/06/26 05:24:55;;;;;;;9.43;6.78;;;;;;;28.70;42.27;100468.97;4980769;28;20038;-80
2022/06/26 05:27:22;;;;;;;10.15;6.78;;;;;;;28.85;42.03;100469.66;4982425;28;20038;-80
2022/06/26 05:29:50;;;;;;;7.22;6.35;;;;;;;29.01;41.46;100482.75;4979403;28;20097;-79
2022/06/26 05:32:16;;;;;;;10.55;6.70;;;;;;;29.15;41.13;100482.53;4967793;28;20097;-78
2022/06/26 05:34:42;;;;;;;8.85;5.57;;;;;;;29.33;40.41;100479.41;4967045;28;20038;-79
2022/06/26 05:37:09;;;;;;;9.75;6.50;;;;;;;29.51;39.99;100487.00;4978543;28;20133;-80
2022/06/26 05:39:37;;;;;;;8.30;6.10;;;;;;;29.63;39.76;100488.75;4979073;28;20042;-79
2022/06/26 05:42:04;;;;;;;10.48;6.57;;;;;;;29.68;39.32;100469.59;4963681;28;20051;-76
2022/06/26 05:44:31;;;;;;;7.38;6.30;;;;;;;29.88;39.22;100493.00;4984552;28;20038;-77
2022/06/26 05:47:00;;;;;;;11.10;6.30;;;;;;;29.98;38.82;100485.09;4984377;28;20442;-80
2022/06/26 05:49:49;;;;;;;10.20;6.40;;;;;;;30.05;37.81;100475.59;4942940;28;20145;-79
2022/06/26 05:52:45;;;;;;;12.25;6.32;;;;;;;30.50;37.65;100479.16;4976397;28;20145;-79
2022/06/26 05:55:23;;;;;;;9.40;5.60;;;;;;;31.37;37.17;100472.81;5016077;28;20042;-79
2022/06/26 05:58:02;;;;;;;8.75;5.72;;;;;;;33.25;34.50;100474.06;4990527;28;20046;-78
2022/06/26 06:00:46;;;;;;;8.98;5.80;;;;;;;35.43;32.43;100468.81;4987598;28;20499;-78
2022/06/26 06:03:13;;;;;;;6.70;5.22;;;;;;;37.47;30.10;100468.75;4984435;28;20042;-80
2022/06/26 06:05:40;;;;;;;7.60;4.95;;;;;;;39.27;27.96;100459.63;4986849;28;20152;-78
2022/06/26 06:08:06;;;;;;;8.05;4.82;;;;;;;40.63;25.39;100452.06;4989082;28;20053;-79
2022/06/26 06:10:32;;;;;;;6.80;4.85;;;;;;;41.67;24.42;100464.16;4982644;28;20422;-78
2022/06/26 06:13:01;;;;;;;6.25;4.35;;;;;;;42.51;23.25;100457.69;4997803;28;20042;-78
2022/06/26 06:15:28;;;;;;;4.95;4.10;;;;;;;43.28;21.91;100465.47;4981297;28;20035;-80
2022/06/26 06:17:56;;;;;;;5.97;3.90;;;;;;;44.36;20.32;100463.94;4983451;28;20247;-80
2022/06/26 06:20:24;;;;;;;6.38;4.10;;;;;;;45.54;19.45;100470.72;4966290;28;20073;-78
2022/06/26 06:23:09;;;;;;;4.43;3.60;;;;;;;46.62;17.71;100470.09;4984305;28;20129;-80
2022/06/26 06:25:38;;;;;;;9.80;3.63;;;;;;;47.49;16.53;100459.41;4966315;28;20038;-79
2022/06/26 06:28:05;;;;;;;4.43;3.67;;;;;;;48.10;15.97;100468.09;4987117;28;20056;-78
2022/06/26 06:30:36;;;;;;;9.05;3.53;;;;;;;48.56;15.05;100453.41;4999171;28;20050;-77
2022/06/26 06:33:02;;;;;;;6.65;3.08;;;;;;;48.72;14.75;100459.22;4983995;28;20050;-81
2022/06/26 06:35:51;;;;;;;6.50;3.80;;;;;;;49.32;14.18;100468.63;4982375;28;20058;-79
2022/06/26 06:38:17;;;;;;;6.78;3.90;;;;;;;49.95;12.86;100468.28;4985909;28;20047;-78
2022/06/26 06:40:50;;;;;;;4.20;3.78;;;;;;;50.18;13.01;100460.78;4987731;28;20549;-80
2022/06/26 06:43:22;;;;;;;4.63;3.40;;;;;;;50.78;11.93;100467.06;4983610;28;20062;-78
2022/06/26 06:46:08;;;;;;;5.65;3.40;;;;;;;51.25;12.43;100463.75;4967439;28;20046;-79
2022/06/26 06:48:34;;;;;;;4.50;3.55;;;;;;;51.76;11.67;100475.00;4981927;28;20047;-78
2022/06/26 06:51:21;;;;;;;6.38;3.50;;;;;;;52.20;11.47;100464.56;4969044;28;20046;-79
2022/06/26 06:53:47;;;;;;;5.05;3.90;;;;;;;52.79;10.83;100467.88;4983667;28;20050;-80
2022/06/26 06:56:13;;;;;;;7.95;3.88;;;;;;;53.05;9.95;100467.84;4980345;28;20039;-80
2022/06/26 06:58:39;;;;;;;5.20;4.30;;;;;;;53.47;9.96;100472.13;4981288;28;20057;-77
2022/06/26 07:01:07;;;;;;;6.00;4.95;;;;;;;53.72;9.69;100471.16;4985343;28;20042;-77
2022/06/26 07:03:33;;;;;;;10.07;9.27;;;;;;;54.08;9.28;100458.97;4982391;28;20039;-77
2022/06/26 07:06:00;;;;;;;8.27;7.47;;;;;;;54.58;9.20;100455.19;4966253;28;20457;-80
2022/06/26 07:08:28;;;;;;;3.88;3.58;;;;;;;54.85;8.99;100464.94;4985178;28;20433;-78
2022/06/26 07:10:55;;;;;;;5.90;3.45;;;;;;;54.48;9.26;100464.50;4965209;28;20105;-82
2022/06/26 07:13:21;;;;;;;4.45;3.40;;;;;;;54.64;9.04;100463.22;4973037;28;20113;-81
2022/06/26 07:15:51;;;;;;;24.17;14.30;;;;;;;54.92;9.00;100466.25;4968895;28;20050;-79
2022/06/26 07:18:17;;;;;;;20.20;14.32;;;;;;;55.36;8.60;100467.13;4969265;28;20046;-79
2022/06/26 07:20:43;;;;;;;14.77;10.77;;;;;;;55.50;8.05;100466.41;4982125;28;20052;-78
2022/06/26 07:23:09;;;;;;;4.50;3.30;;;;;;;55.28;8.17;100456.69;4950001;28;20046;-80
2022/06/26 07:25:48;;;;;;;9.93;8.48;;;;;;;55.21;8.32;100462.56;4998794;28;20047;-79
2022/06/26 07:28:14;;;;;;;3.95;3.63;;;;;;;55.26;8.61;100464.50;4976837;28;20038;-76
2022/06/26 07:30:40;;;;;;;34.55;27.60;;;;;;;55.23;8.14;100460.31;4981130;28;20049;-77
2022/06/26 07:35:59;;;;;;;48.15;43.50;;;;;;;55.20;8.31;100460.09;4986241;28;20508;-79
2022/06/26 07:38:25;;;;;;;45.75;41.47;;;;;;;55.86;8.25;100467.81;4986904;28;20101;-78
2022/06/26 07:40:52;;;;;;;19.08;17.27;;;;;;;55.75;7.87;100476.38;4984386;28;20070;-80
2022/06/26 07:43:20;;;;;;;;;;;;;;;55.81;7.59;100474.31;4984436;28;20065;-79
2022/06/26 07:45:48;;;;;;;6.70;5.13;;;;;;;55.93;7.66;100469.16;4986262;28;19922;-80
2022/06/26 07:48:14;;;;;;;4.45;4.03;;;;;;;56.03;7.74;100464.50;4964373;28;20514;-81
2022/06/26 07:50:40;;;;;;;4.10;3.70;;;;;;;56.22;7.44;100465.31;4981537;28;20042;-81
2022/06/26 07:53:07;;;;;;;4.72;3.40;;;;;;;56.31;7.30;100467.41;4983297;28;20046;-78
2022/06/26 07:55:33;;;;;;;13.18;10.60;;;;;;;56.76;7.20;100459.31;4981531;28;20038;-79
2022/06/26 07:57:59;;;;;;;5.72;3.50;;;;;;;57.17;6.98;100461.31;4965718;28;20088;-82
2022/06/26 08:00:25;;;;;;;5.93;3.58;;;;;;;57.27;6.64;100463.06;4982247;28;20148;-80
2022/06/26 08:02:51;;;;;;;7.15;4.25;;;;;;;57.12;6.89;100458.59;4981721;28;20054;-80
2022/06/26 08:05:18;;;;;;;7.88;3.65;;;;;;;56.69;6.39;100458.91;4951183;28;20037;-77
2022/06/26 08:07:44;;;;;;;5.20;3.47;;;;;;;56.70;6.87;100460.56;4981078;28;20041;-79
2022/06/26 08:10:11;;;;;;;4.40;4.00;;;;;;;56.84;6.26;100458.56;4982910;28;20104;-80
2022/06/26 08:12:37;;;;;;;8.18;7.47;;;;;;;57.37;6.44;100456.41;4964131;28;20407;-77
2022/06/26 08:15:04;;;;;;;11.38;10.32;;;;;;;57.75;6.42;100452.47;4968523;28;20038;-80
2022/06/26 08:17:31;;;;;;;9.98;8.90;;;;;;;58.14;6.16;100450.16;4980888;28;20042;-79
2022/06/26 08:19:56;;;;;;;6.32;5.68;;;;;;;58.18;6.15;100446.38;4968666;28;20042;-80
2022/06/26 08:22:22;;;;;;;5.53;4.32;;;;;;;58.24;6.78;100438.66;4953031;28;20146;-79
2022/06/26 08:24:49;;;;;;;4.63;4.22;;;;;;;58.47;6.30;100442.28;4963541;28;20039;-80
2022/06/26 08:27:15;;;;;;;4.78;4.20;;;;;;;58.52;6.52;100443.25;4981993;28;20053;-78
2022/06/26 08:29:41;;;;;;;7.15;4.40;;;;;;;58.00;6.09;100437.03;4983647;28;20407;-80
2022/06/26 08:32:08;;;;;;;4.82;4.47;;;;;;;57.93;6.03;100428.28;4968647;28;20139;-78
2022/06/26 08:34:34;;;;;;;10.60;7.40;;;;;;;57.42;6.15;100436.72;4968478;28;20042;-78
2022/06/26 08:37:00;;;;;;;5.90;5.25;;;;;;;57.75;6.33;100439.28;4981986;28;20112;-79
2022/06/26 08:39:26;;;;;;;4.70;4.20;;;;;;;57.84;6.46;100441.38;4981614;28;21451;-80
2022/06/26 08:41:53;;;;;;;4.82;4.43;;;;;;;58.02;5.71;100434.72;4980201;28;20090;-78
2022/06/26 08:44:23;;;;;;;5.97;4.18;;;;;;;57.91;5.69;100424.97;4980518;28;20257;-77
2022/06/26 08:46:49;;;;;;;5.18;3.95;;;;;;;57.99;5.59;100429.78;4979503;28;20038;-79
2022/06/26 08:49:18;;;;;;;6.45;4.25;;;;;;;56.70;7.04;100419.50;4985513;28;20065;-79
2022/06/26 08:51:46;;;;;;;11.25;5.25;;;;;;;56.86;6.77;100431.19;4980645;28;20054;-79
2022/06/26 08:54:14;;;;;;;5.38;3.63;;;;;;;56.98;6.09;100421.47;4969770;28;20046;-79
2022/06/26 08:56:42;;;;;;;5.00;4.30;;;;;;;57.39;6.73;100420.56;4980592;28;20041;-79
2022/06/26 08:59:11;;;;;;;5.20;4.20;;;;;;;57.00;6.71;100414.41;4982349;28;20066;-79
2022/06/26 09:01:37;;;;;;;5.17;4.07;;;;;;;56.73;6.67;100426.44;5004687;28;20078;-79
2022/06/26 09:04:04;;;;;;;10.95;9.85;;;;;;;56.25;7.13;100414.47;4993547;28;20348;-79
2022/06/26 09:06:36;;;;;;;4.85;4.03;;;;;;;56.67;6.34;100414.53;4981515;28;20038;-81
2022/06/26 09:09:22;;;;;;;5.70;5.30;;;;;;;57.11;6.92;100417.00;4983377;28;20046;-78
2022/06/26 09:11:51;;;;;;;5.00;4.28;;;;;;;57.54;5.80;100405.44;4981283;28;20573;-80
2022/06/26 09:14:17;;;;;;;7.40;4.82;;;;;;;57.87;6.05;100398.78;4964393;28;20127;-78
2022/06/26 09:16:46;;;;;;;6.45;5.95;;;;;;;57.93;6.42;100416.25;4980092;28;20132;-81
2022/06/26 09:19:18;;;;;;;5.75;4.15;;;;;;;56.90;6.18;100409.06;4984676;28;20133;-81
2022/06/26 09:21:46;;;;;;;10.80;8.00;;;;;;;55.89;6.56;100408.66;4984096;28;20046;-82
2022/06/26 09:24:13;;;;;;;5.68;4.25;;;;;;;56.23;6.37;100397.22;4988119;28;20046;-80
2022/06/26 09:26:41;;;;;;;7.03;5.43;;;;;;;56.62;6.58;100402.63;4986074;28;20454;-80
2022/06/26 09:29:15;;;;;;;4.72;4.30;;;;;;;56.93;6.12;100405.66;4985055;28;20108;-80
2022/06/26 09:31:42;;;;;;;9.45;8.45;;;;;;;57.19;7.05;100399.50;4984585;28;20030;-78
2022/06/26 09:34:21;;;;;;;4.40;4.00;;;;;;;56.98;5.88;100399.94;4960887;28;20163;-80
2022/06/26 09:37:04;;;;;;;5.15;4.68;;;;;;;57.17;6.01;100383.06;4983668;28;20737;-79
2022/06/26 09:39:32;;;;;;;28.98;26.52;;;;;;;57.61;5.78;100399.38;4988216;28;20050;-80
2022/06/26 09:42:15;;;;;;;25.95;23.75;;;;;;;57.47;5.80;100393.81;4983791;28;20051;-81
2022/06/26 09:44:49;;;;;;;18.15;16.45;;;;;;;57.12;6.20;100393.50;4971950;28;20038;-78
2022/06/26 09:47:29;;;;;;;13.88;12.77;;;;;;;57.23;6.36;100382.94;4991960;28;20038;-81
2022/06/26 09:49:58;;;;;;;6.10;4.72;;;;;;;56.97;6.08;100381.53;4986982;28;20181;-79
2022/06/26 09:52:26;;;;;;;5.38;4.57;;;;;;;56.02;7.30;100390.31;4974734;28;20476;-77
2022/06/26 09:54:54;;;;;;;5.78;4.43;;;;;;;55.53;7.30;100380.19;4973550;28;20054;-78
2022/06/26 09:57:20;;;;;;;5.07;4.40;;;;;;;55.40;6.65;100386.53;4985879;28;20042;-79
2022/06/26 09:59:47;;;;;;;6.28;4.78;;;;;;;54.74;7.68;100377.91;4988979;28;20058;-78
2022/06/26 10:07:54;;;;;;;5.50;4.03;;;;;;;51.64;8.63;100361.66;4982522;28;20034;-79
2022/06/26 10:10:24;;;;;;;5.25;4.00;;;;;;;51.95;8.65;100360.84;4969814;28;20130;-80
2022/06/26 10:13:05;;;;;;;6.65;6.07;;;;;;;52.53;8.54;100365.22;4986116;28;20051;-78
2022/06/26 10:15:41;;;;;;;5.68;4.80;;;;;;;52.51;8.41;100356.34;4983731;28;20042;-80
2022/06/26 10:18:32;;;;;;;5.25;4.75;;;;;;;52.89;8.22;100367.06;4983554;28;20558;-81
2022/06/26 10:21:08;;;;;;;4.43;4.03;;;;;;;52.63;8.56;100353.28;4984440;28;20112;-77
2022/06/26 10:23:36;;;;;;;4.60;4.22;;;;;;;51.71;9.11;100358.59;4982622;28;20046;-80
2022/06/26 10:26:20;;;;;;;4.57;4.15;;;;;;;51.43;8.69;100355.22;4986579;28;20152;-81
2022/06/26 10:29:08;;;;;;;7.00;3.58;;;;;;;50.19;9.46;100357.34;4984850;28;21395;-78
2022/06/26 10:31:49;;;;;;;5.18;3.75;;;;;;;48.33;10.48;100346.88;4992825;28;20128;-78
2022/06/26 10:34:23;;;;;;;4.65;3.88;;;;;;;46.73;11.51;100337.19;4988751;28;20051;-77
2022/06/26 10:37:00;;;;;;;4.10;3.42;;;;;;;45.65;12.10;100335.38;4997793;28;20503;-78
2022/06/26 10:39:56;;;;;;;4.40;3.83;;;;;;;44.13;13.25;100345.84;4984541;28;20116;-81
2022/06/26 10:45:18;;;;;;;7.03;6.10;;;;;;;42.69;14.39;100345.78;4982520;28;20049;-80
2022/06/26 10:47:53;;;;;;;8.35;4.88;;;;;;;42.03;14.35;100332.97;4983610;28;20085;-80
2022/06/26 10:50:38;;;;;;;6.75;4.22;;;;;;;41.38;15.15;100342.41;4983441;28;20451;-79
2022/06/26 10:53:19;;;;;;;5.28;4.35;;;;;;;40.77;15.64;100327.63;4985325;28;20564;-79
2022/06/26 10:56:01;;;;;;;6.38;4.03;;;;;;;40.32;16.63;100320.56;4982754;28;20455;-79
2022/06/26 10:58:32;;;;;;;4.25;3.85;;;;;;;40.00;17.15;100332.81;4982770;28;20172;-79
2022/06/26 11:01:01;;;;;;;4.70;4.28;;;;;;;39.55;17.31;100331.06;4983496;28;20085;-76
2022/06/26 11:03:29;;;;;;;6.93;4.28;;;;;;;39.08;17.70;100333.16;4987306;28;20133;-79
2022/06/26 11:05:57;;;;;;;5.03;4.10;;;;;;;38.91;18.06;100337.97;4984669;28;20078;-79
2022/06/26 11:08:33;;;;;;;5.78;4.30;;;;;;;38.40;18.74;100333.19;4982188;28;20077;-80
2022/06/26 11:11:00;;;;;;;4.80;4.40;;;;;;;38.21;19.02;100339.94;4981926;28;20047;-79
2022/06/26 11:13:27;;;;;;;6.90;4.53;;;;;;;37.93;18.90;100318.75;4985663;28;20046;-78
2022/06/26 11:15:53;;;;;;;5.38;4.50;;;;;;;37.72;19.49;100327.53;4985481;28;20061;-82
2022/06/26 11:18:19;;;;;;;7.32;4.95;;;;;;;37.43;19.36;100338.03;4964750;28;20132;-80
2022/06/26 11:20:49;;;;;;;4.88;4.47;;;;;;;37.03;20.26;100338.00;4981517;28;20081;-83
2022/06/26 11:23:27;;;;;;;8.98;4.43;;;;;;;36.64;19.87;100330.59;4980819;28;20475;-81
2022/06/26 11:25:59;;;;;;;9.98;4.57;;;;;;;36.47;21.05;100321.66;4983350;28;20125;-82
2022/06/26 11:28:38;;;;;;;9.32;4.97;;;;;;;36.21;20.63;100328.06;4981239;28;20050;-79
2022/06/26 11:31:11;;;;;;;9.02;5.15;;;;;;;36.13;20.83;100334.31;4980830;28;20046;-79
2022/06/26 11:33:40;;;;;;;9.50;4.78;;;;;;;35.89;21.11;100319.72;4983963;28;20576;-80
2022/06/26 11:36:09;;;;;;;6.10;4.85;;;;;;;35.72;21.42;100323.41;4987809;28;20046;-78
2022/06/26 11:38:36;;;;;;;7.13;4.97;;;;;;;35.56;21.55;100318.81;4986749;28;20046;-80
2022/06/26 11:41:07;;;;;;;5.65;4.60;;;;;;;35.39;21.90;100317.88;4965044;28;20046;-79
2022/06/26 11:43:35;;;;;;;5.85;5.25;;;;;;;35.28;22.08;100313.59;4985315;28;20054;-77
2022/06/26 11:46:03;;;;;;;7.05;4.80;;;;;;;35.26;22.14;100323.72;4969277;28;20458;-79